Ekspressen — LCBK — position and weather

sailwx.info

Track history (hours):
 
Tides and Currents Weather Stations Pressure Air Temp Water Temp Dewpoint Dewpoint Depression Visibility Wind Speed Wind Dir Waves Ship Positions

Ekspressen

Last reported at 2016-Jun-16 19:06 UTC. Time now 2016-Jul-25 11:59 UTC.
Position N 62°23' E 006°03'.
Warning: this ship's position is 38 days out of date.

Length 33 m; draft 2 m.

Type: High speed craft. MMSI: 258416000.

Date/timePositionNaut miles runAvg speedWind from/ knotsBaromVisibWave heightAir tempDewpointWater temp
2016-Jun-16 19:06N 62°23' E 006°03'0 0.1
2016-Jun-16 17:06N 62°23' E 006°03'0 0.0
2016-Jun-16 16:04N 62°23' E 006°03'0 0.2
2016-Jun-16 15:07N 62°23' E 006°03'0 0.4
2016-Jun-16 14:04N 62°23' E 006°03'1 0.1
2016-Jun-16 05:31N 62°24' E 006°02'1 0.5
2016-Jun-16 02:33N 62°22' E 006°02'0 0.0
2016-Jun-16 01:26N 62°22' E 006°02'0 0.0
2016-Jun-16 00:17N 62°22' E 006°02'0 0.0
2016-Jun-15 23:29N 62°22' E 006°02'0 0.0
2016-Jun-15 22:05N 62°22' E 006°02'1 1.1
2016-Jun-15 21:04N 62°23' E 006°03'713.5
2016-Jun-15 20:34N 62°30' E 006°08'0 0.0
2016-Jun-15 19:24N 62°30' E 006°08'0 0.0
2016-Jun-15 18:34N 62°30' E 006°08'1 1.4
2016-Jun-15 17:33N 62°28' E 006°09'0 0.5
2016-Jun-15 16:34N 62°29' E 006°09'1 0.9
2016-Jun-15 15:34N 62°30' E 006°08'0 0.1
2016-Jun-15 14:34N 62°30' E 006°08'1 1.3
2016-Jun-15 13:34N 62°29' E 006°09'4 4.4
2016-Jun-15 12:33N 62°25' E 006°03'1 0.8
2016-Jun-15 11:32N 62°24' E 006°02'1 0.8
2016-Jun-15 10:32N 62°23' E 006°03'0 0.1
2016-Jun-15 09:32N 62°23' E 006°02'0 0.1
2016-Jun-15 08:18N 62°23' E 006°03'2 1.8
2016-Jun-15 07:14N 62°25' E 006°03'3 3.4
2016-Jun-15 06:21N 62°22' E 006°02'2 2.4
2016-Jun-15 05:33N 62°24' E 006°02'5 5.4
2016-Jun-15 04:34N 62°28' E 006°09'5 5.2
2016-Jun-15 03:34N 62°24' E 006°03'  
2016-Jun-10 09:34N 62°25' E 006°03'0 0.1
2016-Jun-10 08:33N 62°25' E 006°03'1 0.6
2016-Jun-10 07:33N 62°25' E 006°03'0 0.1
2016-Jun-10 06:33N 62°25' E 006°03'1 0.5
2016-Jun-10 05:34N 62°25' E 006°03'4 4.5
2016-Jun-10 04:33N 62°28' E 006°09'5 5.1
2016-Jun-10 03:33N 62°24' E 006°03'5 0.9
2016-Jun-09 21:34N 62°29' E 006°07'1 0.6
2016-Jun-09 20:34N 62°30' E 006°08'1 1.5
2016-Jun-09 19:34N 62°28' E 006°09'1 1.5
2016-Jun-09 18:34N 62°30' E 006°08'1 1.4
2016-Jun-09 17:33N 62°28' E 006°09'1 0.8
2016-Jun-09 16:34N 62°29' E 006°08'1 0.7
2016-Jun-09 15:34N 62°30' E 006°08'0 0.0
2016-Jun-09 14:34N 62°30' E 006°08'1 1.2
2016-Jun-09 13:33N 62°29' E 006°08'4 4.1
2016-Jun-09 12:33N 62°25' E 006°03'2 1.6
2016-Jun-09 11:33N 62°24' E 006°03'  
Track history (hours):
 
Tides and Currents Weather Stations Pressure Air Temp Water Temp Dewpoint Dewpoint Depression Visibility Wind Speed Wind Dir Waves Ship Positions

Ekspressen

Last reported at 2016-Jun-16 19:06 UTC. Time now 2016-Jul-25 11:59 UTC.
Position N 62°23' E 006°03'.
Warning: this ship's position is 38 days out of date.

Length 33 m; draft 2 m.

Type: High speed craft. MMSI: 258416000.

Date/timePositionNaut miles runAvg speedWind from/ knotsBaromVisibWave heightAir tempDewpointWater temp
2016-Jun-16 19:06N 62°23' E 006°03'0 0.1
2016-Jun-16 17:06N 62°23' E 006°03'0 0.0
2016-Jun-16 16:04N 62°23' E 006°03'0 0.2
2016-Jun-16 15:07N 62°23' E 006°03'0 0.4
2016-Jun-16 14:04N 62°23' E 006°03'1 0.1
2016-Jun-16 05:31N 62°24' E 006°02'1 0.5
2016-Jun-16 02:33N 62°22' E 006°02'0 0.0
2016-Jun-16 01:26N 62°22' E 006°02'0 0.0
2016-Jun-16 00:17N 62°22' E 006°02'0 0.0
2016-Jun-15 23:29N 62°22' E 006°02'0 0.0
2016-Jun-15 22:05N 62°22' E 006°02'1 1.1
2016-Jun-15 21:04N 62°23' E 006°03'713.5
2016-Jun-15 20:34N 62°30' E 006°08'0 0.0
2016-Jun-15 19:24N 62°30' E 006°08'0 0.0
2016-Jun-15 18:34N 62°30' E 006°08'1 1.4
2016-Jun-15 17:33N 62°28' E 006°09'0 0.5
2016-Jun-15 16:34N 62°29' E 006°09'1 0.9
2016-Jun-15 15:34N 62°30' E 006°08'0 0.1
2016-Jun-15 14:34N 62°30' E 006°08'1 1.3
2016-Jun-15 13:34N 62°29' E 006°09'4 4.4
2016-Jun-15 12:33N 62°25' E 006°03'1 0.8
2016-Jun-15 11:32N 62°24' E 006°02'1 0.8
2016-Jun-15 10:32N 62°23' E 006°03'0 0.1
2016-Jun-15 09:32N 62°23' E 006°02'0 0.1
2016-Jun-15 08:18N 62°23' E 006°03'2 1.8
2016-Jun-15 07:14N 62°25' E 006°03'3 3.4
2016-Jun-15 06:21N 62°22' E 006°02'2 2.4
2016-Jun-15 05:33N 62°24' E 006°02'5 5.4
2016-Jun-15 04:34N 62°28' E 006°09'5 5.2
2016-Jun-15 03:34N 62°24' E 006°03'  
2016-Jun-10 09:34N 62°25' E 006°03'0 0.1
2016-Jun-10 08:33N 62°25' E 006°03'1 0.6
2016-Jun-10 07:33N 62°25' E 006°03'0 0.1
2016-Jun-10 06:33N 62°25' E 006°03'1 0.5
2016-Jun-10 05:34N 62°25' E 006°03'4 4.5
2016-Jun-10 04:33N 62°28' E 006°09'5 5.1
2016-Jun-10 03:33N 62°24' E 006°03'5 0.9
2016-Jun-09 21:34N 62°29' E 006°07'1 0.6
2016-Jun-09 20:34N 62°30' E 006°08'1 1.5
2016-Jun-09 19:34N 62°28' E 006°09'1 1.5
2016-Jun-09 18:34N 62°30' E 006°08'1 1.4
2016-Jun-09 17:33N 62°28' E 006°09'1 0.8
2016-Jun-09 16:34N 62°29' E 006°08'1 0.7
2016-Jun-09 15:34N 62°30' E 006°08'0 0.0
2016-Jun-09 14:34N 62°30' E 006°08'1 1.2
2016-Jun-09 13:33N 62°29' E 006°08'4 4.1
2016-Jun-09 12:33N 62°25' E 006°03'2 1.6
2016-Jun-09 11:33N 62°24' E 006°03'  

Dump ship's entire track history